Time;durP1;ratioP1;P1;durP2;ratioP2;P2;SDS_P1;SDS_P2;PMS_P1;PMS_P2;Temp;Humidity;BMP_temperature;BMP_pressure;BME280_temperature;BME280_humidity;BME280_pressure;Samples;Min_cycle;Max_cycle;Signal;HPM_P1;HPM_P2
2024/03/25 00:01:00;;;;;;;0.30;0.30;;;6.20;99.90;;;;;;4459716;32;20069;-64
2024/03/25 00:03:25;;;;;;;0.37;0.37;;;6.20;99.90;;;;;;4461917;32;20069;-65
2024/03/25 00:05:50;;;;;;;0.30;0.30;;;6.20;99.90;;;;;;4460062;32;20096;-66
2024/03/25 00:08:16;;;;;;;1.00;0.60;;;6.20;99.90;;;;;;4464238;32;20158;-66
2024/03/25 00:10:41;;;;;;;1.00;0.50;;;6.20;99.90;;;;;;4458167;32;20076;-65
2024/03/25 00:13:07;;;;;;;0.30;0.30;;;6.20;99.90;;;;;;4460435;32;20422;-64
2024/03/25 00:15:34;;;;;;;0.30;0.30;;;6.30;99.90;;;;;;4464310;32;20077;-65
2024/03/25 00:17:59;;;;;;;0.30;0.30;;;6.30;99.90;;;;;;4462782;32;20071;-65
2024/03/25 00:20:25;;;;;;;0.35;0.35;;;6.30;99.90;;;;;;4459841;32;20085;-64
2024/03/25 00:22:50;;;;;;;0.40;0.40;;;6.20;99.90;;;;;;4458151;32;20076;-64
2024/03/25 00:25:16;;;;;;;0.35;0.35;;;6.20;99.90;;;;;;4456420;32;20077;-65
2024/03/25 00:27:42;;;;;;;0.40;0.40;;;6.20;99.90;;;;;;4455642;32;20559;-64
2024/03/25 00:30:09;;;;;;;0.30;0.30;;;6.20;99.90;;;;;;4455522;32;20077;-65
2024/03/25 00:32:35;;;;;;;0.30;0.30;;;6.20;99.90;;;;;;4456895;32;20061;-64
2024/03/25 00:35:00;;;;;;;0.40;0.40;;;6.20;99.90;;;;;;4455040;32;20851;-65
2024/03/25 00:37:26;;;;;;;0.28;0.28;;;6.20;99.90;;;;;;4455481;32;20068;-64
2024/03/25 00:39:51;;;;;;;0.20;0.20;;;6.20;99.90;;;;;;4455015;32;20076;-64
2024/03/25 00:42:17;;;;;;;0.50;0.50;;;6.20;99.90;;;;;;4454905;32;20076;-66
2024/03/25 00:44:42;;;;;;;0.30;0.30;;;6.20;99.90;;;;;;4455776;32;20064;-64
2024/03/25 00:47:08;;;;;;;0.25;0.25;;;6.20;99.90;;;;;;4455766;32;20116;-64
2024/03/25 00:49:33;;;;;;;2.17;0.90;;;6.20;99.90;;;;;;4457096;32;20089;-65
2024/03/25 00:51:59;;;;;;;0.40;0.40;;;6.30;99.90;;;;;;4456069;32;20120;-65
2024/03/25 00:54:24;;;;;;;0.30;0.30;;;6.20;99.90;;;;;;4456739;32;20081;-66
2024/03/25 00:56:51;;;;;;;0.47;0.47;;;6.20;99.90;;;;;;4455002;32;20517;-63
2024/03/25 00:59:17;;;;;;;0.30;0.30;;;6.30;99.90;;;;;;4456373;32;20138;-65
2024/03/25 01:04:07;;;;;;;0.30;0.30;;;6.20;99.90;;;;;;4456784;32;20482;-65
2024/03/25 01:06:33;;;;;;;0.40;0.40;;;6.20;99.90;;;;;;4457162;32;20464;-66
2024/03/25 01:08:59;;;;;;;0.30;0.30;;;6.20;99.90;;;;;;4449527;32;20072;-66
2024/03/25 01:11:25;;;;;;;0.40;0.40;;;6.20;99.90;;;;;;4455736;32;20421;-65
2024/03/25 01:13:51;;;;;;;0.32;0.32;;;6.20;99.90;;;;;;4455976;32;20528;-66
2024/03/25 01:16:16;;;;;;;0.45;0.45;;;6.20;99.90;;;;;;4456634;32;20077;-64
2024/03/25 01:18:42;;;;;;;0.40;0.40;;;6.10;99.90;;;;;;4454966;32;20508;-65
2024/03/25 01:21:07;;;;;;;0.65;0.47;;;6.10;99.90;;;;;;4455461;32;20119;-63
2024/03/25 01:23:33;;;;;;;0.25;0.25;;;6.20;99.90;;;;;;4453389;32;20118;-62
2024/03/25 01:25:58;;;;;;;0.37;0.37;;;6.20;99.90;;;;;;4455826;32;20479;-61
2024/03/25 01:28:24;;;;;;;0.57;0.57;;;6.20;99.90;;;;;;4455966;32;20076;-62
2024/03/25 01:30:49;;;;;;;0.25;0.25;;;6.10;99.90;;;;;;4454356;32;20089;-62
2024/03/25 01:33:15;;;;;;;0.30;0.30;;;6.10;99.90;;;;;;4455175;32;20068;-63
2024/03/25 01:35:41;;;;;;;0.30;0.30;;;6.00;99.90;;;;;;4450438;32;20120;-62
2024/03/25 01:38:07;;;;;;;0.30;0.30;;;6.00;99.90;;;;;;4448962;32;20430;-63
2024/03/25 01:40:33;;;;;;;0.30;0.30;;;6.00;99.90;;;;;;4454690;32;20081;-62
2024/03/25 01:43:01;;;;;;;0.40;0.40;;;6.00;99.90;;;;;;4453559;32;20096;-62
2024/03/25 01:45:30;;;;;;;0.32;0.32;;;6.00;99.90;;;;;;4454823;32;20073;-61
2024/03/25 01:47:57;;;;;;;0.50;0.50;;;6.00;99.90;;;;;;4447387;32;20073;-62
2024/03/25 01:50:23;;;;;;;0.30;0.30;;;6.00;99.90;;;;;;4455164;32;20119;-62
2024/03/25 01:52:49;;;;;;;0.30;0.30;;;6.00;99.90;;;;;;4454403;32;20096;-62
2024/03/25 01:55:21;;;;;;;0.30;0.30;;;6.00;99.90;;;;;;4454647;32;20124;-62
2024/03/25 01:57:47;;;;;;;1.58;0.52;;;6.10;99.90;;;;;;4455036;32;20508;-62
2024/03/25 02:00:16;;;;;;;8.63;1.58;;;6.00;99.90;;;;;;4454700;32;20057;-62
2024/03/25 02:02:44;;;;;;;0.30;0.30;;;6.00;99.90;;;;;;4453361;32;20171;-64
2024/03/25 02:05:10;;;;;;;0.73;0.73;;;6.00;99.90;;;;;;4456258;32;20060;-62
2024/03/25 02:07:37;;;;;;;0.30;0.30;;;6.00;99.90;;;;;;4446496;32;20089;-61
2024/03/25 02:10:04;;;;;;;0.30;0.30;;;6.10;99.90;;;;;;4447449;32;20544;-62
2024/03/25 02:12:31;;;;;;;0.40;0.40;;;6.10;99.90;;;;;;4445004;32;20575;-63
2024/03/25 02:14:58;;;;;;;0.30;0.30;;;6.10;99.90;;;;;;4454495;32;20697;-63
2024/03/25 02:17:24;;;;;;;0.30;0.30;;;6.10;99.90;;;;;;4455761;32;20064;-63
2024/03/25 02:19:50;;;;;;;0.85;0.85;;;6.10;99.90;;;;;;4456274;32;20536;-64
2024/03/25 02:22:15;;;;;;;0.30;0.30;;;6.10;99.90;;;;;;4453528;32;20077;-65
2024/03/25 02:24:42;;;;;;;0.40;0.40;;;6.10;99.90;;;;;;4455936;32;20126;-65
2024/03/25 02:27:08;;;;;;;1.35;0.52;;;6.10;99.90;;;;;;4454658;32;20178;-66
2024/03/25 02:29:34;;;;;;;0.40;0.40;;;6.00;99.90;;;;;;4453305;32;20135;-64
2024/03/25 02:31:59;;;;;;;0.30;0.30;;;6.00;99.90;;;;;;4448098;32;20532;-63
2024/03/25 02:34:25;;;;;;;0.30;0.30;;;6.10;99.90;;;;;;4456017;32;20188;-63
2024/03/25 02:36:52;;;;;;;0.40;0.40;;;6.00;99.90;;;;;;4456093;32;20084;-62
2024/03/25 02:39:18;;;;;;;1.20;0.60;;;5.90;99.90;;;;;;4454956;32;20065;-63
2024/03/25 02:41:44;;;;;;;5.15;0.77;;;5.90;99.90;;;;;;4456089;32;20073;-65
2024/03/25 02:44:09;;;;;;;0.30;0.30;;;5.90;99.90;;;;;;4455128;32;20052;-62
2024/03/25 02:46:35;;;;;;;0.30;0.30;;;5.90;99.90;;;;;;4456262;32;20554;-62
2024/03/25 02:49:00;;;;;;;0.30;0.30;;;5.90;99.90;;;;;;4454931;32;20089;-63
2024/03/25 02:51:26;;;;;;;0.30;0.30;;;6.00;99.90;;;;;;4455677;32;20159;-63
2024/03/25 02:53:51;;;;;;;0.40;0.40;;;5.90;99.90;;;;;;4453218;32;20073;-62
2024/03/25 02:56:17;;;;;;;0.30;0.30;;;5.90;99.90;;;;;;4454922;32;20570;-64
2024/03/25 02:58:42;;;;;;;0.30;0.30;;;5.90;99.90;;;;;;4454858;32;20133;-63
2024/03/25 03:01:08;;;;;;;0.47;0.47;;;5.90;99.90;;;;;;4445774;32;20118;-63
2024/03/25 03:03:33;;;;;;;0.30;0.30;;;6.00;99.90;;;;;;4456641;32;20064;-63
2024/03/25 03:05:58;;;;;;;0.93;0.93;;;6.00;99.90;;;;;;4450429;32;20127;-63
2024/03/25 03:08:24;;;;;;;0.40;0.40;;;5.90;99.90;;;;;;4455244;32;20061;-62
2024/03/25 03:10:50;;;;;;;0.32;0.32;;;5.90;99.90;;;;;;4455553;32;20491;-63
2024/03/25 03:13:22;;;;;;;0.65;0.65;;;5.90;99.90;;;;;;4453988;32;20073;-63
2024/03/25 03:15:47;;;;;;;0.28;0.28;;;5.90;99.90;;;;;;4455855;32;20073;-63
2024/03/25 03:18:13;;;;;;;0.30;0.30;;;6.00;99.90;;;;;;4456541;32;20590;-63
2024/03/25 03:20:38;;;;;;;0.30;0.30;;;6.00;99.90;;;;;;4455458;32;20674;-63
2024/03/25 03:23:04;;;;;;;0.37;0.37;;;6.00;99.90;;;;;;4454476;32;20082;-65
2024/03/25 03:25:30;;;;;;;0.30;0.30;;;6.00;99.90;;;;;;4453783;32;20206;-65
2024/03/25 03:27:56;;;;;;;0.30;0.30;;;6.00;99.90;;;;;;4454302;32;20548;-65
2024/03/25 03:30:22;;;;;;;0.52;0.50;;;6.00;99.90;;;;;;4454631;32;20244;-65
2024/03/25 03:32:47;;;;;;;0.43;0.43;;;6.00;99.90;;;;;;4454747;32;20425;-65
2024/03/25 03:35:12;;;;;;;0.30;0.30;;;6.00;99.90;;;;;;4457842;32;20081;-65
2024/03/25 03:37:38;;;;;;;0.40;0.40;;;6.10;99.90;;;;;;4456889;32;20057;-65
2024/03/25 03:40:08;;;;;;;0.50;0.50;;;6.20;99.90;;;;;;4457797;32;20073;-66
2024/03/25 03:42:33;;;;;;;0.40;0.40;;;6.20;99.90;;;;;;4458110;32;20068;-63
2024/03/25 03:44:59;;;;;;;0.57;0.57;;;6.10;99.90;;;;;;4458319;32;20436;-63
2024/03/25 03:47:24;;;;;;;1.02;0.55;;;6.10;99.90;;;;;;4458053;32;20084;-64
2024/03/25 03:49:50;;;;;;;0.30;0.30;;;6.10;99.90;;;;;;4457869;32;20422;-63
2024/03/25 03:52:15;;;;;;;0.30;0.30;;;6.00;99.90;;;;;;4455849;32;20060;-63
2024/03/25 03:54:41;;;;;;;3.03;1.55;;;6.00;99.90;;;;;;4456881;32;20126;-63
2024/03/25 03:57:06;;;;;;;0.30;0.30;;;6.00;99.90;;;;;;4458112;32;20073;-63
2024/03/25 03:59:31;;;;;;;0.40;0.40;;;6.00;99.90;;;;;;4457188;32;20185;-62
2024/03/25 04:01:57;;;;;;;3.00;1.02;;;6.00;99.90;;;;;;4457802;32;20491;-63
2024/03/25 04:04:23;;;;;;;0.73;0.73;;;6.00;99.90;;;;;;4447838;32;20068;-63
2024/03/25 04:06:48;;;;;;;0.30;0.30;;;6.00;99.90;;;;;;4447717;32;20064;-64
2024/03/25 04:09:14;;;;;;;0.30;0.30;;;6.00;99.90;;;;;;4446933;32;20128;-64
2024/03/25 04:11:40;;;;;;;0.28;0.28;;;6.00;99.90;;;;;;4449249;32;20065;-63
2024/03/25 04:14:05;;;;;;;0.40;0.40;;;6.00;99.90;;;;;;4457806;32;20524;-63
2024/03/25 04:16:31;;;;;;;0.50;0.50;;;6.00;99.90;;;;;;4459753;32;20419;-64
2024/03/25 04:18:57;;;;;;;0.30;0.30;;;5.90;99.90;;;;;;4457533;32;20096;-63
2024/03/25 04:21:23;;;;;;;0.28;0.28;;;5.90;99.90;;;;;;4448784;32;20478;-64
2024/03/25 04:23:49;;;;;;;0.37;0.37;;;5.90;99.90;;;;;;4455559;32;20072;-63
2024/03/25 04:26:15;;;;;;;0.30;0.30;;;5.90;99.90;;;;;;4456436;32;20056;-63
2024/03/25 04:28:41;;;;;;;0.30;0.30;;;5.90;99.90;;;;;;4457361;32;20532;-63
2024/03/25 04:31:08;;;;;;;0.30;0.30;;;5.90;99.90;;;;;;4457585;32;20126;-65
2024/03/25 04:33:34;;;;;;;0.20;0.20;;;6.00;99.90;;;;;;4456499;32;20076;-64
2024/03/25 04:35:59;;;;;;;0.40;0.40;;;6.00;99.90;;;;;;4456805;32;20088;-65
2024/03/25 04:38:25;;;;;;;0.30;0.30;;;6.00;99.90;;;;;;4454050;32;20096;-66
2024/03/25 04:40:51;;;;;;;0.47;0.47;;;6.00;99.90;;;;;;4455286;32;20080;-66
2024/03/25 04:43:16;;;;;;;0.30;0.30;;;6.00;99.90;;;;;;4457148;32;20072;-66
2024/03/25 04:45:42;;;;;;;0.50;0.50;;;6.00;99.90;;;;;;4454145;32;20092;-66
2024/03/25 04:48:07;;;;;;;0.40;0.40;;;6.00;99.90;;;;;;4455654;32;20166;-66
2024/03/25 04:50:33;;;;;;;0.30;0.30;;;6.00;99.90;;;;;;4457902;32;20072;-66
2024/03/25 04:52:59;;;;;;;0.30;0.30;;;6.00;99.90;;;;;;4455596;32;20093;-65
2024/03/25 04:55:25;;;;;;;0.30;0.30;;;6.00;99.90;;;;;;4446672;32;20628;-63
2024/03/25 04:57:50;;;;;;;0.30;0.30;;;6.00;99.90;;;;;;4456029;32;20085;-63
2024/03/25 05:00:16;;;;;;;6.82;1.45;;;6.00;99.90;;;;;;4456086;32;20101;-64
2024/03/25 05:02:41;;;;;;;0.30;0.30;;;5.90;99.90;;;;;;4455864;32;20068;-63
2024/03/25 05:05:07;;;;;;;0.52;0.50;;;6.00;99.90;;;;;;4455832;32;21550;-63
2024/03/25 05:07:33;;;;;;;3.40;1.77;;;6.00;99.90;;;;;;4457265;32;20089;-63
2024/03/25 05:09:59;;;;;;;0.30;0.30;;;5.90;99.90;;;;;;4448885;32;20077;-62
2024/03/25 05:12:27;;;;;;;0.47;0.47;;;5.90;99.90;;;;;;4458020;32;20141;-63
2024/03/25 05:14:52;;;;;;;0.30;0.30;;;5.90;99.90;;;;;;4455958;32;20060;-63
2024/03/25 05:17:18;;;;;;;0.30;0.30;;;5.90;99.90;;;;;;4455708;32;20163;-63
2024/03/25 05:19:43;;;;;;;0.25;0.25;;;6.00;99.90;;;;;;4456604;32;20077;-63
2024/03/25 05:22:09;;;;;;;0.60;0.55;;;6.00;99.90;;;;;;4455447;32;20064;-63
2024/03/25 05:24:34;;;;;;;0.40;0.40;;;5.90;99.90;;;;;;4456227;32;20539;-63
2024/03/25 05:27:00;;;;;;;0.30;0.30;;;6.00;99.90;;;;;;4455738;32;20133;-62
2024/03/25 05:29:26;;;;;;;1.25;1.15;;;6.00;99.90;;;;;;4455343;32;21650;-63
2024/03/25 05:32:00;;;;;;;0.30;0.30;;;6.00;99.90;;;;;;4455606;32;20076;-64
2024/03/25 05:34:27;;;;;;;0.20;0.20;;;6.00;99.90;;;;;;4450185;32;20088;-62
2024/03/25 05:36:52;;;;;;;0.75;0.75;;;6.00;99.90;;;;;;4446369;32;20076;-63
2024/03/25 05:39:18;;;;;;;0.40;0.40;;;6.00;99.90;;;;;;4448355;32;20469;-64
2024/03/25 05:41:44;;;;;;;1.85;0.95;;;6.00;99.90;;;;;;4456138;32;20521;-66
2024/03/25 05:44:09;;;;;;;0.30;0.30;;;6.00;99.90;;;;;;4453616;32;20123;-66
2024/03/25 05:46:35;;;;;;;0.43;0.43;;;5.90;99.90;;;;;;4456394;32;20089;-66
2024/03/25 05:49:03;;;;;;;0.40;0.40;;;5.90;99.90;;;;;;4455334;32;20093;-65
2024/03/25 05:51:30;;;;;;;0.30;0.30;;;5.90;99.90;;;;;;4451358;32;20072;-66
2024/03/25 05:53:55;;;;;;;2.03;1.30;;;5.90;99.90;;;;;;4453547;32;20560;-66
2024/03/25 05:56:21;;;;;;;0.40;0.40;;;5.90;99.90;;;;;;4445453;32;20140;-66
2024/03/25 05:58:47;;;;;;;0.30;0.30;;;5.90;99.90;;;;;;4455250;32;20060;-66
2024/03/25 06:01:13;;;;;;;1.55;0.95;;;6.00;99.90;;;;;;4452472;32;20523;-65
2024/03/25 06:03:38;;;;;;;0.40;0.40;;;5.90;99.90;;;;;;4453422;32;20076;-65
2024/03/25 06:06:04;;;;;;;0.65;0.43;;;5.90;99.90;;;;;;4454844;32;20081;-64
2024/03/25 06:08:30;;;;;;;0.30;0.30;;;5.90;99.90;;;;;;4446626;32;20119;-66
2024/03/25 06:11:01;;;;;;;0.65;0.65;;;6.00;99.90;;;;;;4453206;32;21110;-63
2024/03/25 06:13:26;;;;;;;0.30;0.30;;;6.00;99.90;;;;;;4445386;32;20072;-65
2024/03/25 06:15:52;;;;;;;3.97;1.67;;;6.00;99.90;;;;;;4446915;32;20431;-61
2024/03/25 06:18:17;;;;;;;0.30;0.30;;;6.00;99.90;;;;;;4452319;32;20407;-62
2024/03/25 06:20:43;;;;;;;4.47;0.85;;;6.00;99.90;;;;;;4454130;32;20085;-65
2024/03/25 06:23:08;;;;;;;0.30;0.30;;;6.00;99.90;;;;;;4455288;32;20096;-64
2024/03/25 06:25:35;;;;;;;1.85;1.37;;;6.00;99.90;;;;;;4458077;32;20080;-64
2024/03/25 06:28:01;;;;;;;0.30;0.30;;;6.00;99.90;;;;;;4455203;32;20543;-64
2024/03/25 06:34:14;;;;;;;0.40;0.40;;;6.00;99.90;;;;;;4447418;32;20068;-63
2024/03/25 06:35:58;;;;;;;0.30;0.30;;;6.00;99.90;;;;;;4445918;32;20155;-63
2024/03/25 06:38:24;;;;;;;0.30;0.30;;;6.00;99.90;;;;;;4455817;32;20081;-64
2024/03/25 06:40:51;;;;;;;0.40;0.40;;;6.00;99.90;;;;;;4455357;32;20069;-64
2024/03/25 06:43:18;;;;;;;0.50;0.50;;;6.00;99.90;;;;;;4454932;32;20550;-62
2024/03/25 06:45:46;;;;;;;1.65;0.82;;;6.00;99.90;;;;;;4457071;32;20525;-64
2024/03/25 06:48:11;;;;;;;1.02;0.82;;;6.00;99.90;;;;;;4456930;32;20874;-64
2024/03/25 06:50:37;;;;;;;0.37;0.37;;;6.00;99.90;;;;;;4454594;32;20084;-66
2024/03/25 06:53:02;;;;;;;0.30;0.30;;;6.00;99.90;;;;;;4454605;32;20548;-65
2024/03/25 06:55:28;;;;;;;0.30;0.30;;;6.10;99.90;;;;;;4453345;32;20115;-65
2024/03/25 06:57:53;;;;;;;0.32;0.32;;;6.10;99.90;;;;;;4453183;32;20065;-64
2024/03/25 07:00:22;;;;;;;1.67;0.85;;;6.00;99.90;;;;;;4453555;32;20101;-65
2024/03/25 07:02:48;;;;;;;10.18;0.62;;;6.00;99.90;;;;;;4439245;32;20071;-65
2024/03/25 07:05:14;;;;;;;0.73;0.73;;;6.00;99.90;;;;;;4453443;32;20069;-63
2024/03/25 07:07:39;;;;;;;0.40;0.40;;;5.90;99.90;;;;;;4440610;32;20537;-64
2024/03/25 07:10:05;;;;;;;0.40;0.40;;;6.00;99.90;;;;;;4454013;32;20108;-64
2024/03/25 07:12:31;;;;;;;0.30;0.30;;;6.00;99.90;;;;;;4455154;32;20540;-66
2024/03/25 07:14:56;;;;;;;0.30;0.30;;;6.00;99.90;;;;;;4457101;32;20084;-65
2024/03/25 07:17:22;;;;;;;0.30;0.30;;;6.10;99.90;;;;;;4455985;32;20406;-65
2024/03/25 07:19:48;;;;;;;0.30;0.30;;;6.10;99.90;;;;;;4456226;32;20134;-65
2024/03/25 07:22:13;;;;;;;0.30;0.30;;;6.10;99.90;;;;;;4456490;32;20568;-64
2024/03/25 07:24:39;;;;;;;3.00;1.05;;;6.10;99.90;;;;;;4454982;32;20180;-65
2024/03/25 07:27:05;;;;;;;1.65;0.75;;;6.20;99.90;;;;;;4455729;32;20637;-65
2024/03/25 07:29:31;;;;;;;0.40;0.40;;;6.10;99.90;;;;;;4453626;32;20131;-66
2024/03/25 07:31:56;;;;;;;0.40;0.40;;;6.10;99.90;;;;;;4454511;32;20076;-65
2024/03/25 07:34:22;;;;;;;1.25;0.95;;;6.20;99.90;;;;;;4455229;32;20073;-64
2024/03/25 07:36:48;;;;;;;0.30;0.30;;;6.20;99.90;;;;;;4454996;32;20089;-63
2024/03/25 07:39:14;;;;;;;0.35;0.35;;;6.20;99.90;;;;;;4455873;32;20080;-63
2024/03/25 07:41:40;;;;;;;0.57;0.57;;;6.20;99.90;;;;;;4429696;32;20605;-65
2024/03/25 07:44:05;;;;;;;0.30;0.30;;;6.20;99.90;;;;;;4456792;32;20127;-65
2024/03/25 07:46:31;;;;;;;0.93;0.85;;;6.20;99.90;;;;;;4455780;32;20068;-65
2024/03/25 07:48:56;;;;;;;0.40;0.40;;;6.20;99.90;;;;;;4454629;32;20073;-64
2024/03/25 07:51:22;;;;;;;0.47;0.47;;;6.20;99.90;;;;;;4455778;32;20100;-65
2024/03/25 07:53:48;;;;;;;0.30;0.30;;;6.20;99.90;;;;;;4447256;32;20076;-65
2024/03/25 07:56:15;;;;;;;0.40;0.40;;;6.20;99.90;;;;;;4443111;32;20085;-64
2024/03/25 07:58:41;;;;;;;0.30;0.30;;;6.20;99.90;;;;;;4418012;32;20095;-64
2024/03/25 08:01:06;;;;;;;0.40;0.40;;;6.20;99.90;;;;;;4447289;32;20076;-64
2024/03/25 08:03:31;;;;;;;0.30;0.30;;;6.30;99.90;;;;;;4447800;32;20081;-61
2024/03/25 08:05:57;;;;;;;4.40;1.83;;;6.30;99.90;;;;;;4446433;32;20386;-61
2024/03/25 08:08:22;;;;;;;0.50;0.50;;;6.40;99.90;;;;;;4447915;32;20064;-61
2024/03/25 08:10:48;;;;;;;0.30;0.30;;;6.40;99.90;;;;;;4443499;32;20085;-64
2024/03/25 08:13:13;;;;;;;0.40;0.40;;;6.50;99.90;;;;;;4448004;32;20119;-65
2024/03/25 08:15:39;;;;;;;0.28;0.28;;;6.60;99.90;;;;;;4446187;32;20081;-62
2024/03/25 08:18:05;;;;;;;0.50;0.50;;;6.70;99.90;;;;;;4445663;32;20060;-63
2024/03/25 08:20:30;;;;;;;0.43;0.43;;;6.70;99.90;;;;;;4448770;32;20139;-62
2024/03/25 08:22:56;;;;;;;0.60;0.60;;;6.70;99.90;;;;;;4445385;32;20081;-62
2024/03/25 08:25:21;;;;;;;0.32;0.32;;;6.70;99.90;;;;;;4448060;32;20509;-63
2024/03/25 08:27:47;;;;;;;0.20;0.20;;;6.80;99.90;;;;;;4448879;32;20137;-64
2024/03/25 08:30:12;;;;;;;0.60;0.40;;;6.80;99.90;;;;;;4446781;32;20431;-62
2024/03/25 08:32:38;;;;;;;0.30;0.30;;;6.80;99.90;;;;;;4445411;32;20458;-63
2024/03/25 08:35:03;;;;;;;0.32;0.32;;;6.80;99.90;;;;;;4447137;32;20077;-62
2024/03/25 08:37:29;;;;;;;0.37;0.37;;;6.90;99.90;;;;;;4445682;32;20262;-61
2024/03/25 08:39:54;;;;;;;0.20;0.20;;;6.80;99.90;;;;;;4446598;32;20127;-62
2024/03/25 08:42:21;;;;;;;1.02;0.50;;;6.80;99.90;;;;;;4444666;32;20069;-63
2024/03/25 08:44:47;;;;;;;0.40;0.40;;;6.90;99.90;;;;;;4446405;32;20143;-63
2024/03/25 08:47:12;;;;;;;0.30;0.30;;;6.90;99.90;;;;;;4432187;32;20185;-63
2024/03/25 08:49:37;;;;;;;2.17;1.10;;;6.90;99.90;;;;;;4441058;32;20077;-62
2024/03/25 08:52:03;;;;;;;0.32;0.32;;;7.00;99.90;;;;;;4440998;32;20085;-63
2024/03/25 08:54:29;;;;;;;0.30;0.30;;;7.10;99.90;;;;;;4433206;32;20076;-62
2024/03/25 08:56:54;;;;;;;0.85;0.57;;;7.10;99.90;;;;;;4445317;32;20158;-63
2024/03/25 08:59:20;;;;;;;0.30;0.30;;;7.10;99.90;;;;;;4447649;32;20060;-63
2024/03/25 09:01:45;;;;;;;0.32;0.32;;;7.10;99.90;;;;;;4445028;32;20069;-63
2024/03/25 09:04:11;;;;;;;0.30;0.30;;;7.20;99.90;;;;;;4444708;32;20123;-62
2024/03/25 09:06:37;;;;;;;0.28;0.28;;;7.10;99.90;;;;;;4447483;32;20085;-63
2024/03/25 09:11:03;;;;;;;0.47;0.47;;;7.10;99.90;;;;;;4449707;32;20476;-64
2024/03/25 09:11:48;;;;;;;0.40;0.28;;;7.20;99.90;;;;;;4435807;32;20077;-62
2024/03/25 09:14:14;;;;;;;0.30;0.30;;;7.20;99.90;;;;;;4445519;32;20540;-62
2024/03/25 09:16:40;;;;;;;0.25;0.25;;;7.30;99.90;;;;;;4446263;32;20191;-62
2024/03/25 09:19:05;;;;;;;0.40;0.40;;;7.30;99.90;;;;;;4446507;32;20089;-62
2024/03/25 09:21:30;;;;;;;0.20;0.20;;;7.30;99.90;;;;;;4445566;32;20074;-65
2024/03/25 09:23:57;;;;;;;0.30;0.30;;;7.20;99.90;;;;;;4445694;32;20065;-65
2024/03/25 09:26:23;;;;;;;0.55;0.47;;;7.20;99.90;;;;;;4445864;32;20441;-65
2024/03/25 09:28:49;;;;;;;0.37;0.37;;;7.10;99.90;;;;;;4437902;32;20084;-65
2024/03/25 09:31:14;;;;;;;0.55;0.40;;;7.10;99.90;;;;;;4443218;32;20654;-62
2024/03/25 09:33:40;;;;;;;0.30;0.30;;;7.10;99.90;;;;;;4448006;32;20069;-63
2024/03/25 09:36:06;;;;;;;0.65;0.50;;;7.00;99.90;;;;;;4445410;32;20163;-62
2024/03/25 09:38:31;;;;;;;0.40;0.40;;;7.00;99.90;;;;;;4441201;32;20082;-63
2024/03/25 09:40:57;;;;;;;0.37;0.37;;;7.00;99.90;;;;;;4445081;32;20196;-62
2024/03/25 09:43:32;;;;;;;0.62;0.50;;;7.00;99.90;;;;;;4444370;32;20060;-64
2024/03/25 09:45:59;;;;;;;0.40;0.40;;;7.10;99.90;;;;;;4446040;32;20121;-61
2024/03/25 09:48:24;;;;;;;0.30;0.30;;;7.10;99.90;;;;;;4443149;32;20075;-62
2024/03/25 09:50:52;;;;;;;0.28;0.28;;;7.20;99.90;;;;;;4441002;32;20434;-63
2024/03/25 09:53:17;;;;;;;0.25;0.25;;;7.30;99.90;;;;;;4446947;32;20540;-63
2024/03/25 09:55:43;;;;;;;0.30;0.30;;;7.60;99.90;;;;;;4454103;32;20069;-62
2024/03/25 09:58:09;;;;;;;0.30;0.30;;;7.80;99.90;;;;;;4455381;32;20076;-62
2024/03/25 10:00:34;;;;;;;0.28;0.28;;;7.90;99.90;;;;;;4454535;32;20069;-62
2024/03/25 10:03:00;;;;;;;3.83;0.85;;;8.10;99.90;;;;;;4453394;32;20084;-62
2024/03/25 10:05:25;;;;;;;0.30;0.30;;;8.30;99.90;;;;;;4454437;32;20091;-63
2024/03/25 10:07:51;;;;;;;0.30;0.30;;;8.50;99.90;;;;;;4453886;32;20084;-61
2024/03/25 10:10:20;;;;;;;0.30;0.30;;;8.60;99.90;;;;;;4454587;32;20081;-64
2024/03/25 10:12:45;;;;;;;0.93;0.35;;;8.90;99.90;;;;;;4454388;32;20085;-63
2024/03/25 10:15:16;;;;;;;0.75;0.75;;;8.90;99.90;;;;;;4445882;32;20068;-61
2024/03/25 10:17:41;;;;;;;0.30;0.30;;;9.00;99.90;;;;;;4442149;32;20479;-63
2024/03/25 10:20:09;;;;;;;0.20;0.20;;;9.10;99.90;;;;;;4455062;32;20084;-63
2024/03/25 10:22:42;;;;;;;0.70;0.50;;;9.10;99.90;;;;;;4451535;32;20065;-64
2024/03/25 10:25:18;;;;;;;1.25;1.15;;;9.00;99.90;;;;;;4452852;32;20096;-62
2024/03/25 10:27:53;;;;;;;0.55;0.47;;;8.90;99.90;;;;;;4447007;32;20083;-62
2024/03/25 10:30:19;;;;;;;3.62;0.60;;;9.10;99.90;;;;;;4444392;32;20076;-65
2024/03/25 10:32:45;;;;;;;0.30;0.30;;;9.20;99.90;;;;;;4453129;32;20061;-63
2024/03/25 10:35:10;;;;;;;0.20;0.20;;;9.30;99.90;;;;;;4447088;32;20123;-66
2024/03/25 10:37:36;;;;;;;0.52;0.50;;;9.30;99.90;;;;;;4452592;32;20110;-64
2024/03/25 10:40:03;;;;;;;0.37;0.37;;;9.30;99.90;;;;;;4453631;32;20130;-61
2024/03/25 10:42:30;;;;;;;0.55;0.55;;;9.20;99.90;;;;;;4452884;32;20140;-66
2024/03/25 10:44:56;;;;;;;0.43;0.43;;;9.00;99.90;;;;;;4450170;32;20088;-66
2024/03/25 10:47:25;;;;;;;0.50;0.50;;;9.00;99.90;;;;;;4455589;32;20566;-66
2024/03/25 10:49:57;;;;;;;0.30;0.30;;;8.70;99.90;;;;;;4443935;32;20483;-66
2024/03/25 10:52:26;;;;;;;0.30;0.30;;;8.70;99.90;;;;;;4443086;32;20081;-66
2024/03/25 10:54:54;;;;;;;0.32;0.32;;;8.60;99.90;;;;;;4452375;32;20068;-65
2024/03/25 10:57:20;;;;;;;0.47;0.47;;;8.50;99.90;;;;;;4455725;32;20543;-66
2024/03/25 10:59:46;;;;;;;0.57;0.57;;;8.50;99.90;;;;;;4455595;32;20100;-66
2024/03/25 11:02:12;;;;;;;0.37;0.37;;;8.70;99.90;;;;;;4445614;32;20255;-66
2024/03/25 11:04:38;;;;;;;0.20;0.20;;;8.90;99.90;;;;;;4446795;32;20520;-65
2024/03/25 11:07:13;;;;;;;0.30;0.30;;;9.10;99.90;;;;;;4445457;32;20064;-65
2024/03/25 11:09:39;;;;;;;0.20;0.20;;;9.30;99.90;;;;;;4453865;32;20103;-65
2024/03/25 11:12:05;;;;;;;0.30;0.30;;;9.30;99.90;;;;;;4453444;32;20077;-65
2024/03/25 11:14:32;;;;;;;0.30;0.30;;;9.20;99.90;;;;;;4455480;32;20123;-65
2024/03/25 11:16:59;;;;;;;1.05;1.00;;;9.00;99.90;;;;;;4453529;32;20612;-65
2024/03/25 11:19:27;;;;;;;0.30;0.30;;;8.90;99.90;;;;;;4454971;32;20450;-66
2024/03/25 11:21:53;;;;;;;0.22;0.22;;;8.80;99.90;;;;;;4445902;32;20080;-61
2024/03/25 11:24:28;;;;;;;0.20;0.20;;;8.80;99.90;;;;;;4454531;32;20521;-62
2024/03/25 11:26:54;;;;;;;0.30;0.30;;;9.30;99.90;;;;;;4451818;32;20913;-62
2024/03/25 11:29:19;;;;;;;0.22;0.22;;;9.80;99.90;;;;;;4446842;32;20524;-62
2024/03/25 11:31:45;;;;;;;0.30;0.30;;;10.20;99.90;;;;;;4443071;32;20065;-66
2024/03/25 11:34:10;;;;;;;0.30;0.30;;;10.60;99.90;;;;;;4452412;32;20481;-66
2024/03/25 11:36:36;;;;;;;0.30;0.30;;;10.60;99.90;;;;;;4452489;32;20147;-65
2024/03/25 11:39:04;;;;;;;0.45;0.45;;;10.40;99.90;;;;;;4454925;32;20371;-65
2024/03/25 11:41:31;;;;;;;0.28;0.28;;;10.30;99.90;;;;;;4446242;32;20096;-63
2024/03/25 11:43:58;;;;;;;0.30;0.30;;;10.10;99.90;;;;;;4443863;32;20069;-63
2024/03/25 11:46:27;;;;;;;0.57;0.47;;;10.10;99.90;;;;;;4456060;32;20536;-62
2024/03/25 11:48:53;;;;;;;0.30;0.30;;;10.20;99.90;;;;;;4452267;32;20072;-63
2024/03/25 11:51:20;;;;;;;0.20;0.20;;;10.10;99.90;;;;;;4439730;32;20104;-62
2024/03/25 11:53:45;;;;;;;0.30;0.30;;;10.30;99.90;;;;;;4447347;32;91670;-64
2024/03/25 11:56:11;;;;;;;0.37;0.37;;;10.50;99.90;;;;;;4447112;32;20073;-63
2024/03/25 11:58:38;;;;;;;0.30;0.30;;;10.50;99.90;;;;;;4455988;32;20068;-63
2024/03/25 12:01:03;;;;;;;1.45;0.75;;;10.50;99.90;;;;;;4456355;32;20061;-64
2024/03/25 12:03:29;;;;;;;4.30;0.98;;;10.60;99.90;;;;;;4456545;32;20598;-62
2024/03/25 12:05:55;;;;;;;0.60;0.60;;;10.40;99.90;;;;;;4455923;32;20351;-63
2024/03/25 12:08:26;;;;;;;3.15;1.42;;;10.00;99.90;;;;;;4457637;32;20080;-63
2024/03/25 12:11:23;;;;;;;0.30;0.30;;;10.10;99.90;;;;;;4456768;32;20088;-63
2024/03/25 12:13:40;;;;;;;0.30;0.30;;;10.20;99.90;;;;;;4438158;32;20065;-63
2024/03/25 12:16:07;;;;;;;0.30;0.30;;;10.10;99.90;;;;;;4458233;32;20096;-62
2024/03/25 12:18:34;;;;;;;0.40;0.40;;;10.00;99.90;;;;;;4433741;32;20116;-62
2024/03/25 12:21:00;;;;;;;0.20;0.20;;;10.30;99.90;;;;;;4437774;32;20076;-63
2024/03/25 12:23:30;;;;;;;1.55;0.82;;;10.60;99.90;;;;;;4447430;32;20144;-63
2024/03/25 12:25:56;;;;;;;0.30;0.30;;;11.20;99.90;;;;;;4448023;32;20554;-63
2024/03/25 12:28:22;;;;;;;0.30;0.30;;;11.60;99.90;;;;;;4458245;32;20065;-62
2024/03/25 12:30:51;;;;;;;0.40;0.40;;;12.10;99.90;;;;;;4458109;32;20080;-63
2024/03/25 12:33:18;;;;;;;0.40;0.40;;;13.30;99.90;;;;;;4457937;32;20056;-63
2024/03/25 12:35:46;;;;;;;0.40;0.40;;;14.10;99.90;;;;;;4459218;32;20096;-63
2024/03/25 12:38:31;;;;;;;0.30;0.30;;;13.70;99.90;;;;;;4458905;32;20065;-64
2024/03/25 12:41:12;;;;;;;0.30;0.30;;;13.30;99.90;;;;;;4444040;32;20084;-63
2024/03/25 12:43:45;;;;;;;;;;;12.60;99.90;;;;;;4449041;32;20076;-62
2024/03/25 12:46:11;;;;;;;0.35;0.35;;;12.20;99.90;;;;;;4458042;32;19968;-64
2024/03/25 12:48:38;;;;;;;0.30;0.30;;;11.70;99.90;;;;;;4456042;32;20127;-63
2024/03/25 12:51:04;;;;;;;0.40;0.40;;;11.40;99.90;;;;;;4445637;32;20077;-66
2024/03/25 12:53:30;;;;;;;0.30;0.30;;;11.10;99.90;;;;;;4453454;32;20077;-66
2024/03/25 12:55:56;;;;;;;0.40;0.40;;;11.00;99.90;;;;;;4455051;32;21266;-66